Time;durP1;ratioP1;P1;durP2;ratioP2;P2;SDS_P1;SDS_P2;PMS_P1;PMS_P2;Temp;Humidity;BMP_temperature;BMP_pressure;BME280_temperature;BME280_humidity;BME280_pressure;Samples;Min_cycle;Max_cycle;Signal;HPM_P1;HPM_P2
2022/07/03 00:00:37;;;;;;;9.77;6.95;;;20.40;99.90;;;;;;4210875;28;20494;-64
2022/07/03 00:02:38;;;;;;;12.68;7.10;;;20.40;99.90;;;;;;4210882;28;20090;-65
2022/07/03 00:04:39;;;;;;;12.38;7.30;;;20.30;99.90;;;;;;4211233;28;20461;-63
2022/07/03 00:06:41;;;;;;;9.20;7.47;;;20.30;99.90;;;;;;4210814;28;20618;-65
2022/07/03 00:08:42;;;;;;;10.73;7.63;;;20.30;99.90;;;;;;4211441;28;20029;-65
2022/07/03 00:10:43;;;;;;;10.55;7.15;;;20.20;99.90;;;;;;4210417;28;20085;-65
2022/07/03 00:12:45;;;;;;;9.27;6.47;;;20.10;99.90;;;;;;4211461;28;20024;-65
2022/07/03 00:14:46;;;;;;;8.82;7.03;;;20.10;99.90;;;;;;4210329;28;20028;-63
2022/07/03 00:16:47;;;;;;;9.07;6.60;;;20.10;99.90;;;;;;4211540;28;20157;-64
2022/07/03 00:18:48;;;;;;;9.05;6.70;;;20.10;99.90;;;;;;4210453;28;20028;-64
2022/07/03 00:21:00;;;;;;;10.38;7.18;;;20.10;99.90;;;;;;4211477;28;20093;-64
2022/07/03 00:23:06;;;;;;;9.32;6.53;;;20.10;99.90;;;;;;4210179;28;20078;-64
2022/07/03 00:25:11;;;;;;;9.02;7.38;;;20.10;99.90;;;;;;4211295;28;20073;-64
2022/07/03 00:27:15;;;;;;;8.60;7.10;;;20.10;99.90;;;;;;4209930;28;20032;-65
2022/07/03 00:29:17;;;;;;;9.32;7.55;;;20.10;99.90;;;;;;4211472;28;20040;-64
2022/07/03 00:31:18;;;;;;;9.48;7.32;;;20.10;99.90;;;;;;4210472;28;20093;-65
2022/07/03 00:33:21;;;;;;;9.02;7.22;;;20.10;99.90;;;;;;4211234;28;20028;-65
2022/07/03 00:35:22;;;;;;;10.70;6.82;;;20.10;99.90;;;;;;4210978;28;20036;-65
2022/07/03 00:37:24;;;;;;;10.80;7.30;;;20.10;99.90;;;;;;4210674;28;20102;-66
2022/07/03 00:39:26;;;;;;;9.13;6.63;;;20.10;99.90;;;;;;4210623;28;20054;-65
2022/07/03 00:41:30;;;;;;;10.40;7.00;;;20.10;99.90;;;;;;4210386;28;20040;-65
2022/07/03 00:43:31;;;;;;;6.78;6.07;;;20.20;99.90;;;;;;4211010;28;20121;-65
2022/07/03 00:45:34;;;;;;;7.80;6.47;;;20.20;99.90;;;;;;4210090;28;20094;-65
2022/07/03 00:47:36;;;;;;;9.65;7.28;;;20.30;99.90;;;;;;4211238;28;20013;-63
2022/07/03 00:49:40;;;;;;;10.50;7.40;;;20.40;99.90;;;;;;4210281;28;20036;-65
2022/07/03 00:51:42;;;;;;;13.70;7.13;;;20.30;99.90;;;;;;4211428;28;20040;-65
2022/07/03 00:53:46;;;;;;;7.38;6.68;;;20.40;99.90;;;;;;4210001;28;20081;-66
2022/07/03 00:55:49;;;;;;;9.63;7.50;;;20.40;99.90;;;;;;4211248;28;20094;-63
2022/07/03 00:57:50;;;;;;;8.07;6.85;;;20.40;99.90;;;;;;4209911;28;20162;-63
2022/07/03 00:59:52;;;;;;;7.90;6.57;;;20.40;99.90;;;;;;4211082;28;20044;-63
2022/07/03 01:02:04;;;;;;;8.68;6.93;;;20.30;99.90;;;;;;4209873;28;20024;-64
2022/07/03 01:04:28;;;;;;;10.10;7.65;;;20.30;99.90;;;;;;4211383;28;20044;-62
2022/07/03 01:06:34;;;;;;;11.48;7.40;;;20.30;99.90;;;;;;4210463;28;20036;-65
2022/07/03 01:09:03;;;;;;;12.85;7.18;;;20.20;99.90;;;;;;4211162;28;20032;-64
2022/07/03 01:11:10;;;;;;;10.48;6.95;;;20.20;99.90;;;;;;4208658;28;20036;-64
2022/07/03 01:13:36;;;;;;;11.57;7.65;;;20.10;99.90;;;;;;4211351;28;20438;-65
2022/07/03 01:15:53;;;;;;;7.28;6.55;;;20.10;99.90;;;;;;4212849;28;20028;-63
2022/07/03 01:18:23;;;;;;;8.10;7.00;;;20.10;99.90;;;;;;4213964;28;20125;-64
2022/07/03 01:20:28;;;;;;;7.35;6.45;;;20.10;99.90;;;;;;4202973;28;20039;-65
2022/07/03 01:22:31;;;;;;;10.98;7.88;;;20.10;99.90;;;;;;4213555;28;20081;-65
2022/07/03 01:25:00;;;;;;;11.18;7.28;;;20.10;99.90;;;;;;4212834;28;20534;-66
2022/07/03 01:27:09;;;;;;;10.93;8.13;;;20.10;99.90;;;;;;4213170;28;20039;-64
2022/07/03 01:29:22;;;;;;;11.38;6.72;;;20.00;99.90;;;;;;4213480;28;20040;-65
2022/07/03 01:31:24;;;;;;;9.93;7.80;;;20.00;99.90;;;;;;4213183;28;20040;-65
2022/07/03 01:33:26;;;;;;;13.77;7.10;;;20.00;99.90;;;;;;4213283;28;20036;-64
2022/07/03 01:35:39;;;;;;;10.43;6.80;;;19.90;99.90;;;;;;4213648;28;20081;-62
2022/07/03 01:37:41;;;;;;;12.40;7.25;;;19.90;99.90;;;;;;4212974;28;20064;-64
2022/07/03 01:39:45;;;;;;;9.82;8.10;;;19.80;99.90;;;;;;4213479;28;20048;-64
2022/07/03 01:41:49;;;;;;;13.70;8.07;;;19.70;99.90;;;;;;4212307;28;20024;-64
2022/07/03 01:43:57;;;;;;;10.27;8.25;;;19.70;99.90;;;;;;4213737;28;20431;-65
2022/07/03 01:46:00;;;;;;;11.48;7.15;;;19.60;99.90;;;;;;4211103;28;20094;-64
2022/07/03 01:48:04;;;;;;;12.68;8.15;;;19.50;99.90;;;;;;4213534;28;20521;-65
2022/07/03 01:50:10;;;;;;;13.00;7.82;;;19.50;99.90;;;;;;4212409;28;20032;-65
2022/07/03 01:52:11;;;;;;;10.48;8.80;;;19.50;99.90;;;;;;4212365;28;20024;-65
2022/07/03 01:54:13;;;;;;;8.93;8.02;;;19.40;99.90;;;;;;4212383;28;20044;-66
2022/07/03 01:56:18;;;;;;;9.63;8.63;;;19.30;99.90;;;;;;4213161;28;20032;-64
2022/07/03 01:58:19;;;;;;;11.25;9.15;;;19.30;99.90;;;;;;4212342;28;20093;-64
2022/07/03 02:00:22;;;;;;;11.93;9.38;;;19.20;99.90;;;;;;4213334;28;20051;-66
2022/07/03 02:02:32;;;;;;;11.70;7.97;;;19.10;99.90;;;;;;4212102;28;20035;-67
2022/07/03 02:04:41;;;;;;;11.98;8.35;;;19.10;99.90;;;;;;4213318;28;20040;-64
2022/07/03 02:07:01;;;;;;;11.77;8.27;;;19.00;99.90;;;;;;4212286;28;20040;-64
2022/07/03 02:09:05;;;;;;;8.50;7.60;;;18.90;99.90;;;;;;4213568;28;20112;-66
2022/07/03 02:11:20;;;;;;;12.48;7.57;;;19.10;99.90;;;;;;4212112;28;20105;-63
2022/07/03 02:13:27;;;;;;;8.40;6.95;;;19.10;99.90;;;;;;4213071;28;20568;-65
2022/07/03 02:15:31;;;;;;;12.05;8.40;;;19.20;99.90;;;;;;4212184;28;20442;-64
2022/07/03 02:18:14;;;;;;;12.05;7.75;;;19.20;99.90;;;;;;4212988;28;20053;-65
2022/07/03 02:20:16;;;;;;;11.43;7.90;;;19.30;99.90;;;;;;4210450;28;20093;-64
2022/07/03 02:22:20;;;;;;;12.10;8.18;;;19.30;99.90;;;;;;4213183;28;20366;-66
2022/07/03 02:24:27;;;;;;;11.15;8.10;;;19.40;99.90;;;;;;4211921;28;20032;-64
2022/07/03 02:26:33;;;;;;;10.75;8.45;;;19.40;99.90;;;;;;4212736;28;20028;-65
2022/07/03 02:28:52;;;;;;;10.93;7.95;;;19.40;99.90;;;;;;4211743;28;20109;-64
2022/07/03 02:30:58;;;;;;;10.52;8.18;;;19.40;99.90;;;;;;4212797;28;20065;-63
2022/07/03 02:33:01;;;;;;;10.82;7.18;;;19.50;99.90;;;;;;4211718;28;20081;-63
2022/07/03 02:35:06;;;;;;;10.38;7.40;;;19.50;99.90;;;;;;4212652;28;20073;-63
2022/07/03 02:37:18;;;;;;;10.65;7.93;;;19.60;99.90;;;;;;4211708;28;20093;-63
2022/07/03 02:39:27;;;;;;;11.15;7.85;;;19.60;99.90;;;;;;4212648;28;20028;-62
2022/07/03 02:41:52;;;;;;;13.13;7.80;;;19.60;99.90;;;;;;4211581;28;20048;-63
2022/07/03 02:44:04;;;;;;;8.73;7.13;;;19.60;99.90;;;;;;4211697;28;20036;-64
2022/07/03 02:46:48;;;;;;;8.45;6.90;;;19.70;99.90;;;;;;4211606;28;20089;-63
2022/07/03 02:48:33;;;;;;;9.05;6.90;;;19.70;99.90;;;;;;4212381;28;20082;-65
2022/07/03 02:50:38;;;;;;;11.15;7.90;;;19.70;99.90;;;;;;4211378;28;20036;-65
2022/07/03 02:52:40;;;;;;;14.90;7.57;;;19.80;99.90;;;;;;4212463;28;20040;-64
2022/07/03 02:54:46;;;;;;;8.98;7.55;;;19.80;99.90;;;;;;4211350;28;20113;-64
2022/07/03 02:56:59;;;;;;;9.68;7.80;;;19.80;99.90;;;;;;4212291;28;20081;-65
2022/07/03 02:59:22;;;;;;;9.43;8.02;;;19.80;99.90;;;;;;4211378;28;20048;-65
2022/07/03 03:01:45;;;;;;;10.68;8.38;;;19.80;99.90;;;;;;4212286;28;20044;-64
2022/07/03 03:04:16;;;;;;;12.18;7.90;;;19.70;99.90;;;;;;4211052;28;20020;-64
2022/07/03 03:06:21;;;;;;;10.90;7.85;;;19.70;99.90;;;;;;4212395;28;20097;-65
2022/07/03 03:08:40;;;;;;;11.05;8.32;;;19.80;99.90;;;;;;4211573;28;20066;-65
2022/07/03 03:10:43;;;;;;;10.40;7.43;;;19.80;99.90;;;;;;4211610;28;20089;-64
2022/07/03 03:12:52;;;;;;;9.25;7.85;;;19.90;99.90;;;;;;4211592;28;20036;-64
2022/07/03 03:15:01;;;;;;;9.18;7.45;;;20.00;99.90;;;;;;4211774;28;20172;-63
2022/07/03 03:17:05;;;;;;;10.38;7.68;;;20.00;99.90;;;;;;4211200;28;20492;-64
2022/07/03 03:19:07;;;;;;;11.23;7.43;;;20.20;99.90;;;;;;4211733;28;20683;-64
2022/07/03 03:21:16;;;;;;;9.85;7.28;;;20.20;99.90;;;;;;4210882;28;20346;-64
2022/07/03 03:23:35;;;;;;;8.50;7.15;;;20.30;99.90;;;;;;4211629;28;20044;-62
2022/07/03 03:25:37;;;;;;;9.50;6.90;;;20.40;99.90;;;;;;4209773;28;20097;-63
2022/07/03 03:27:38;;;;;;;11.38;7.07;;;20.70;99.90;;;;;;4211666;28;20040;-62
2022/07/03 03:29:40;;;;;;;8.82;7.20;;;21.10;99.90;;;;;;4209567;28;20028;-66
2022/07/03 03:31:41;;;;;;;11.38;7.93;;;21.20;99.90;;;;;;4212065;28;20035;-64
2022/07/03 03:33:44;;;;;;;13.82;7.10;;;21.30;99.90;;;;;;4210763;28;20093;-66
2022/07/03 03:35:46;;;;;;;11.43;7.55;;;21.50;99.90;;;;;;4212166;28;20072;-62
2022/07/03 03:37:48;;;;;;;9.40;7.47;;;21.80;99.90;;;;;;4210350;28;20048;-64
2022/07/03 03:39:49;;;;;;;10.32;6.78;;;22.20;99.90;;;;;;4211994;28;20089;-65
2022/07/03 03:41:52;;;;;;;10.25;8.82;;;22.30;99.90;;;;;;4209794;28;20529;-66
2022/07/03 03:43:53;;;;;;;11.32;7.57;;;22.40;99.90;;;;;;4211707;28;20434;-63
2022/07/03 03:45:54;;;;;;;12.07;7.72;;;22.50;99.90;;;;;;4209370;28;20093;-63
2022/07/03 03:47:56;;;;;;;11.27;7.65;;;22.60;99.90;;;;;;4211562;28;20482;-65
2022/07/03 03:49:57;;;;;;;8.82;7.03;;;22.70;99.90;;;;;;4210565;28;20024;-65
2022/07/03 03:51:58;;;;;;;9.05;7.00;;;23.00;99.90;;;;;;4211297;28;20020;-64
2022/07/03 03:54:00;;;;;;;8.48;6.45;;;23.30;99.90;;;;;;4210794;28;20478;-65
2022/07/03 03:56:07;;;;;;;10.73;7.10;;;23.70;99.90;;;;;;4210687;28;20036;-65
2022/07/03 03:58:08;;;;;;;8.63;6.70;;;23.90;99.90;;;;;;4211070;28;20093;-64
2022/07/03 04:00:10;;;;;;;19.60;8.35;;;24.20;99.90;;;;;;4210355;28;20469;-63
2022/07/03 04:02:12;;;;;;;8.90;7.22;;;24.30;99.90;;;;;;4211424;28;20024;-64
2022/07/03 04:04:17;;;;;;;12.52;8.93;;;24.20;99.90;;;;;;4210555;28;20032;-65
2022/07/03 04:06:21;;;;;;;11.45;9.10;;;23.90;99.90;;;;;;4212168;28;20574;-64
2022/07/03 04:08:24;;;;;;;9.93;8.73;;;23.80;99.90;;;;;;4210353;28;20031;-64
2022/07/03 04:10:25;;;;;;;12.10;8.35;;;23.90;99.90;;;;;;4211786;28;20093;-66
2022/07/03 04:12:26;;;;;;;14.95;10.75;;;23.80;99.90;;;;;;4210441;28;20036;-65
2022/07/03 04:14:27;;;;;;;16.10;9.70;;;23.90;99.90;;;;;;4211558;28;20029;-64
2022/07/03 04:16:28;;;;;;;15.75;9.85;;;24.10;99.90;;;;;;4210532;28;20024;-65
2022/07/03 04:18:30;;;;;;;14.15;9.82;;;24.40;99.90;;;;;;4211604;28;20105;-63
2022/07/03 04:20:31;;;;;;;12.15;9.27;;;24.90;99.90;;;;;;4210242;28;20036;-63
2022/07/03 04:22:32;;;;;;;15.20;9.60;;;25.60;99.90;;;;;;4211599;28;20040;-66
2022/07/03 04:24:34;;;;;;;17.98;9.48;;;26.00;99.90;;;;;;4210391;28;20028;-65
2022/07/03 04:26:36;;;;;;;21.17;10.93;;;26.40;99.90;;;;;;4210957;28;20020;-65
2022/07/03 04:28:37;;;;;;;20.40;11.57;;;26.80;99.90;;;;;;4210525;28;20069;-65
2022/07/03 04:30:39;;;;;;;15.75;10.63;;;26.60;99.90;;;;;;4210619;28;20020;-66
2022/07/03 04:32:41;;;;;;;17.35;9.60;;;26.70;99.90;;;;;;4211096;28;20032;-64
2022/07/03 04:34:42;;;;;;;18.48;10.75;;;27.10;99.90;;;;;;4210584;28;20044;-67
2022/07/03 04:36:43;;;;;;;14.15;9.00;;;27.50;99.90;;;;;;4211717;28;20040;-64
2022/07/03 04:38:45;;;;;;;20.77;8.80;;;27.90;99.90;;;;;;4210046;28;20056;-65
2022/07/03 04:40:46;;;;;;;11.30;7.95;;;28.10;99.90;;;;;;4211155;28;20016;-64
2022/07/03 04:42:47;;;;;;;12.23;7.85;;;28.40;99.90;;;;;;4209939;28;20549;-63
2022/07/03 04:44:48;;;;;;;8.10;6.80;;;28.40;99.90;;;;;;4211502;28;20032;-65
2022/07/03 04:46:50;;;;;;;17.75;7.80;;;28.70;99.90;;;;;;4210309;28;20093;-64
2022/07/03 04:48:51;;;;;;;15.40;9.02;;;29.00;99.90;;;;;;4212240;28;20529;-66
2022/07/03 04:50:52;;;;;;;12.50;9.25;;;29.10;99.90;;;;;;4213163;28;20557;-63
2022/07/03 04:52:53;;;;;;;12.45;8.25;;;29.00;99.90;;;;;;4214289;28;20028;-64
2022/07/03 04:54:54;;;;;;;13.07;8.52;;;29.10;99.90;;;;;;4212948;28;20031;-63
2022/07/03 04:56:56;;;;;;;9.77;7.47;;;29.10;99.90;;;;;;4213818;28;20031;-67
2022/07/03 04:58:57;;;;;;;14.43;8.13;;;29.20;99.90;;;;;;4213334;28;20077;-65
2022/07/03 05:00:58;;;;;;;13.77;7.25;;;29.30;99.90;;;;;;4213556;28;20048;-66
2022/07/03 05:03:00;;;;;;;15.35;10.48;;;29.60;99.90;;;;;;4213698;28;20065;-64
2022/07/03 05:05:01;;;;;;;18.23;10.55;;;29.60;99.80;;;;;;4213277;28;20058;-66
2022/07/03 05:07:02;;;;;;;13.00;10.30;;;29.60;99.70;;;;;;4214286;28;20085;-66
2022/07/03 05:09:03;;;;;;;16.52;10.65;;;29.40;99.70;;;;;;4213026;28;20052;-65
2022/07/03 05:11:05;;;;;;;16.98;10.45;;;29.10;99.90;;;;;;4213843;28;20412;-66
2022/07/03 05:13:06;;;;;;;17.75;9.50;;;29.40;99.80;;;;;;4212835;28;20089;-65
2022/07/03 05:15:08;;;;;;;21.75;9.77;;;29.70;99.50;;;;;;4213930;28;20161;-65
2022/07/03 05:17:09;;;;;;;12.82;8.40;;;30.10;99.00;;;;;;4212558;28;20040;-64
2022/07/03 05:19:11;;;;;;;18.75;8.45;;;30.30;98.60;;;;;;4213795;28;20113;-66
2022/07/03 05:21:12;;;;;;;14.70;8.52;;;30.00;98.60;;;;;;4213047;28;20074;-65
2022/07/03 05:23:13;;;;;;;14.00;7.53;;;29.90;98.70;;;;;;4213911;28;20105;-64
2022/07/03 05:25:14;;;;;;;10.23;7.00;;;30.20;98.50;;;;;;4212759;28;20024;-65
2022/07/03 05:27:15;;;;;;;11.32;7.70;;;30.10;98.20;;;;;;4213357;28;20058;-66
2022/07/03 05:29:16;;;;;;;18.90;8.15;;;29.90;98.40;;;;;;4212910;28;20028;-64
2022/07/03 05:31:17;;;;;;;11.27;6.30;;;29.80;98.40;;;;;;4213115;28;20054;-66
2022/07/03 05:33:18;;;;;;;7.78;5.82;;;30.00;98.30;;;;;;4211811;28;20085;-65
2022/07/03 05:35:20;;;;;;;6.35;5.38;;;30.40;97.80;;;;;;4212816;28;20084;-65
2022/07/03 05:37:21;;;;;;;8.82;5.68;;;29.70;97.90;;;;;;4213686;28;20039;-65
2022/07/03 05:39:34;;;;;;;8.68;5.45;;;29.30;98.40;;;;;;4212425;28;20105;-65
2022/07/03 05:41:35;;;;;;;8.35;5.35;;;29.40;98.90;;;;;;4213132;28;20032;-66
2022/07/03 05:43:37;;;;;;;8.18;5.00;;;30.00;98.20;;;;;;4212275;28;20036;-64
2022/07/03 05:45:38;;;;;;;9.40;4.53;;;30.40;97.60;;;;;;4213110;28;20086;-65
2022/07/03 05:47:39;;;;;;;6.85;4.35;;;30.70;97.10;;;;;;4212064;28;20450;-63
2022/07/03 05:49:40;;;;;;;5.20;3.78;;;30.40;96.70;;;;;;4213103;28;20130;-67
2022/07/03 05:51:41;;;;;;;4.93;3.80;;;30.00;97.00;;;;;;4211928;28;20032;-67
2022/07/03 05:53:42;;;;;;;4.30;3.17;;;29.40;97.20;;;;;;4212860;28;20522;-63
2022/07/03 05:55:44;;;;;;;4.13;3.72;;;29.50;97.40;;;;;;4212098;28;20101;-64
2022/07/03 05:57:45;;;;;;;4.90;3.92;;;29.60;97.00;;;;;;4213409;28;20089;-64
2022/07/03 05:59:46;;;;;;;4.65;4.05;;;29.40;97.10;;;;;;4211694;28;20101;-66
2022/07/03 06:01:47;;;;;;;5.10;4.00;;;29.10;97.30;;;;;;4213038;28;20077;-66
2022/07/03 06:03:49;;;;;;;5.90;3.72;;;28.80;97.70;;;;;;4212358;28;20083;-64
2022/07/03 06:05:50;;;;;;;5.47;4.07;;;28.80;97.70;;;;;;4212636;28;20093;-62
2022/07/03 06:07:51;;;;;;;6.88;3.58;;;28.50;97.90;;;;;;4213267;28;20040;-64
2022/07/03 06:09:52;;;;;;;4.38;3.58;;;28.30;98.10;;;;;;4211904;28;20035;-64
2022/07/03 06:11:53;;;;;;;5.07;3.95;;;28.40;98.30;;;;;;4212510;28;20380;-62
2022/07/03 06:13:54;;;;;;;6.60;3.85;;;28.50;98.20;;;;;;4211826;28;20117;-64
2022/07/03 06:15:55;;;;;;;7.45;4.03;;;28.70;98.10;;;;;;4213193;28;20036;-63
2022/07/03 06:17:58;;;;;;;5.72;3.78;;;29.10;97.80;;;;;;4211864;28;20032;-62
2022/07/03 06:19:59;;;;;;;5.45;4.03;;;29.70;97.60;;;;;;4213115;28;20082;-63
2022/07/03 06:22:00;;;;;;;3.78;3.08;;;30.30;96.40;;;;;;4211953;28;20072;-63
2022/07/03 06:24:01;;;;;;;4.60;3.90;;;30.10;96.20;;;;;;4212648;28;20024;-63
2022/07/03 06:26:02;;;;;;;5.88;4.03;;;30.10;96.30;;;;;;4211801;28;20040;-64
2022/07/03 06:28:03;;;;;;;8.65;4.43;;;29.60;96.60;;;;;;4212759;28;20027;-65
2022/07/03 06:30:05;;;;;;;5.80;3.83;;;29.30;96.90;;;;;;4210822;28;20036;-63
2022/07/03 06:32:07;;;;;;;6.13;3.28;;;29.20;97.30;;;;;;4212540;28;20093;-65
2022/07/03 06:34:08;;;;;;;4.90;3.95;;;29.40;97.10;;;;;;4211782;28;20025;-64
2022/07/03 06:36:09;;;;;;;5.90;4.22;;;29.50;96.80;;;;;;4212526;28;20464;-63
2022/07/03 06:38:10;;;;;;;4.85;4.32;;;29.50;96.90;;;;;;4212102;28;20117;-63
2022/07/03 06:40:11;;;;;;;6.28;4.32;;;29.40;96.90;;;;;;4211897;28;20093;-64
2022/07/03 06:42:13;;;;;;;7.20;5.20;;;29.40;96.90;;;;;;4212194;28;20078;-64
2022/07/03 06:44:14;;;;;;;6.68;4.60;;;29.30;97.20;;;;;;4211298;28;20024;-63
2022/07/03 06:46:15;;;;;;;4.50;4.10;;;29.10;97.40;;;;;;4212614;28;20085;-63
2022/07/03 06:48:16;;;;;;;7.90;4.20;;;29.00;97.50;;;;;;4211139;28;20164;-63
2022/07/03 06:50:17;;;;;;;6.75;3.80;;;28.60;97.90;;;;;;4211033;28;20492;-63
2022/07/03 06:52:19;;;;;;;6.32;4.55;;;28.30;98.20;;;;;;4211145;28;20465;-63
2022/07/03 06:54:20;;;;;;;5.72;4.50;;;28.50;98.40;;;;;;4212500;28;20097;-64
2022/07/03 06:56:21;;;;;;;6.05;4.47;;;28.70;98.40;;;;;;4211100;28;20055;-64
2022/07/03 06:58:22;;;;;;;7.15;4.63;;;28.60;98.40;;;;;;4212093;28;20040;-64
2022/07/03 07:00:23;;;;;;;6.03;3.85;;;28.70;98.40;;;;;;4211033;28;20117;-64
2022/07/03 07:02:25;;;;;;;3.72;3.42;;;28.60;98.50;;;;;;4212223;28;20443;-63
2022/07/03 07:04:26;;;;;;;5.93;3.85;;;28.90;98.50;;;;;;4209819;28;20036;-64
2022/07/03 07:06:27;;;;;;;4.22;3.80;;;28.50;98.50;;;;;;4211536;28;20447;-63
2022/07/03 07:08:28;;;;;;;5.35;3.92;;;28.40;98.70;;;;;;4211285;28;20032;-64
2022/07/03 07:10:29;;;;;;;5.70;3.83;;;28.40;98.90;;;;;;4210924;28;20035;-63
2022/07/03 07:12:30;;;;;;;5.60;3.75;;;28.60;98.80;;;;;;4211039;28;20036;-64
2022/07/03 07:14:31;;;;;;;6.07;4.13;;;28.50;98.80;;;;;;4210852;28;20040;-64
2022/07/03 07:16:32;;;;;;;4.45;3.85;;;28.60;99.00;;;;;;4211755;28;20069;-63
2022/07/03 07:18:34;;;;;;;7.93;4.38;;;28.90;98.70;;;;;;4210348;28;20362;-64
2022/07/03 07:20:35;;;;;;;5.50;4.13;;;29.10;98.30;;;;;;4211908;28;20420;-63
2022/07/03 07:22:36;;;;;;;4.22;3.35;;;28.90;98.50;;;;;;4210612;28;20043;-64
2022/07/03 07:24:37;;;;;;;5.30;3.22;;;29.00;98.50;;;;;;4211443;28;20358;-66
2022/07/03 07:26:38;;;;;;;5.95;3.70;;;29.40;98.00;;;;;;4210109;28;20024;-63
2022/07/03 07:28:39;;;;;;;5.20;3.85;;;29.10;98.20;;;;;;4211634;28;20419;-64
2022/07/03 07:30:40;;;;;;;4.75;3.38;;;29.00;98.30;;;;;;4210642;28;20073;-64
2022/07/03 07:32:42;;;;;;;3.95;3.30;;;28.60;98.50;;;;;;4211480;28;20044;-64
2022/07/03 07:34:43;;;;;;;3.20;2.90;;;28.60;98.70;;;;;;4209294;28;20482;-63
2022/07/03 07:36:44;;;;;;;5.05;3.55;;;28.50;98.60;;;;;;4211561;28;20089;-64
2022/07/03 07:38:45;;;;;;;4.88;3.83;;;28.50;98.60;;;;;;4211136;28;20991;-64
2022/07/03 07:40:46;;;;;;;3.42;3.13;;;28.60;98.50;;;;;;4210858;28;20036;-65
2022/07/03 07:42:47;;;;;;;4.40;2.95;;;28.70;98.30;;;;;;4211160;28;20040;-65
2022/07/03 07:44:48;;;;;;;4.03;3.40;;;28.70;98.00;;;;;;4210472;28;20032;-65
2022/07/03 07:46:50;;;;;;;4.32;3.30;;;28.80;97.90;;;;;;4211285;28;20028;-65
2022/07/03 07:48:51;;;;;;;5.13;3.60;;;28.60;98.00;;;;;;4210156;28;20062;-65
2022/07/03 07:50:52;;;;;;;4.93;2.90;;;28.90;98.00;;;;;;4211412;28;20047;-64
2022/07/03 07:52:53;;;;;;;11.95;7.75;;;29.40;97.70;;;;;;4210292;28;20036;-63
2022/07/03 07:54:55;;;;;;;5.35;3.60;;;30.00;97.10;;;;;;4211410;28;20032;-65
2022/07/03 07:56:56;;;;;;;3.60;3.17;;;30.10;96.90;;;;;;4210003;28;20081;-64
2022/07/03 07:58:57;;;;;;;3.40;3.08;;;29.90;96.70;;;;;;4211138;28;20081;-65
2022/07/03 08:05:37;;;;;;;5.68;2.83;;;29.60;96.90;;;;;;4210201;28;20031;-66
2022/07/03 08:07:38;;;;;;;3.83;3.15;;;29.80;97.00;;;;;;4211555;28;20093;-66
2022/07/03 08:09:39;;;;;;;3.47;3.05;;;29.80;96.40;;;;;;4209924;28;20043;-65
2022/07/03 08:11:41;;;;;;;3.55;3.15;;;29.50;96.60;;;;;;4211228;28;20040;-63
2022/07/03 08:13:42;;;;;;;5.90;3.85;;;29.60;96.50;;;;;;4210258;28;20435;-65
2022/07/03 08:15:44;;;;;;;3.72;3.30;;;29.30;96.80;;;;;;4211211;28;20484;-64
2022/07/03 08:17:45;;;;;;;5.15;3.45;;;29.10;97.20;;;;;;4210391;28;20101;-65
2022/07/03 08:19:46;;;;;;;3.47;3.10;;;29.00;97.40;;;;;;4210579;28;20101;-66
2022/07/03 08:21:47;;;;;;;2.70;2.50;;;29.10;97.10;;;;;;4210838;28;20032;-65
2022/07/03 08:23:48;;;;;;;7.35;3.28;;;29.30;96.90;;;;;;4213275;28;20550;-66
2022/07/03 08:25:49;;;;;;;4.15;3.03;;;29.60;96.60;;;;;;4214466;28;20373;-64
2022/07/03 08:27:51;;;;;;;5.20;3.65;;;29.70;96.50;;;;;;4213382;28;20089;-67
2022/07/03 08:29:52;;;;;;;7.47;3.40;;;29.80;96.50;;;;;;4214352;28;20482;-66
2022/07/03 08:31:53;;;;;;;5.15;3.50;;;29.80;96.50;;;;;;4213467;28;20078;-64
2022/07/03 08:33:54;;;;;;;3.63;3.33;;;29.80;96.50;;;;;;4214638;28;20385;-64
2022/07/03 08:35:55;;;;;;;5.20;4.00;;;29.90;96.40;;;;;;4213355;28;20040;-64
2022/07/03 08:37:57;;;;;;;7.20;3.22;;;29.90;96.30;;;;;;4214679;28;20023;-64
2022/07/03 08:39:58;;;;;;;4.72;3.72;;;29.90;96.30;;;;;;4212598;28;20036;-63
2022/07/03 08:41:59;;;;;;;3.92;3.35;;;29.60;96.50;;;;;;4214058;28;20033;-63
2022/07/03 08:44:02;;;;;;;4.70;3.22;;;29.60;96.30;;;;;;4212999;28;20036;-63
2022/07/03 08:46:05;;;;;;;4.50;3.63;;;29.40;96.50;;;;;;4214034;28;20028;-65
2022/07/03 08:48:07;;;;;;;3.72;3.15;;;29.40;96.40;;;;;;4213139;28;20012;-64
2022/07/03 08:50:12;;;;;;;6.55;3.55;;;29.20;96.20;;;;;;4213477;28;20074;-64
2022/07/03 08:52:13;;;;;;;4.20;3.30;;;29.30;96.20;;;;;;4213341;28;20077;-63
2022/07/03 08:54:15;;;;;;;3.72;3.33;;;29.40;96.10;;;;;;4212955;28;20628;-65
2022/07/03 08:56:16;;;;;;;3.50;3.08;;;29.50;96.20;;;;;;4213219;28;20036;-65
2022/07/03 08:58:21;;;;;;;8.57;3.88;;;29.70;96.10;;;;;;4212628;28;20529;-65
2022/07/03 09:00:22;;;;;;;5.13;3.72;;;29.60;95.90;;;;;;4213540;28;20074;-64
2022/07/03 09:02:24;;;;;;;4.45;3.45;;;29.50;95.80;;;;;;4212577;28;20361;-63
2022/07/03 09:04:26;;;;;;;6.93;3.80;;;29.50;95.70;;;;;;4213683;28;20024;-63
2022/07/03 09:06:33;;;;;;;4.95;3.00;;;29.50;95.60;;;;;;4212586;28;20081;-64
2022/07/03 09:08:37;;;;;;;5.03;3.08;;;29.50;95.20;;;;;;4213944;28;20430;-64
2022/07/03 09:10:38;;;;;;;4.72;3.10;;;29.50;95.20;;;;;;4212484;28;20020;-67
2022/07/03 09:12:39;;;;;;;3.60;2.90;;;29.60;95.00;;;;;;4213574;28;20086;-65
2022/07/03 09:14:41;;;;;;;4.63;3.50;;;29.70;95.10;;;;;;4212707;28;20036;-64
2022/07/03 09:16:42;;;;;;;4.15;3.20;;;29.70;95.00;;;;;;4213939;28;20117;-65
2022/07/03 09:18:45;;;;;;;4.28;2.88;;;29.70;95.00;;;;;;4212133;28;20085;-64
2022/07/03 09:20:46;;;;;;;3.85;3.13;;;29.60;94.90;;;;;;4213425;28;20082;-65
2022/07/03 09:22:47;;;;;;;3.47;3.13;;;29.70;94.80;;;;;;4212489;28;20526;-65
2022/07/03 09:24:50;;;;;;;5.93;3.58;;;29.80;94.60;;;;;;4212909;28;20024;-66
2022/07/03 09:26:54;;;;;;;4.68;3.83;;;29.90;94.60;;;;;;4212481;28;20016;-65
2022/07/03 09:28:55;;;;;;;6.25;3.20;;;29.90;94.60;;;;;;4212669;28;20081;-66
2022/07/03 09:31:01;;;;;;;3.80;2.92;;;29.90;94.60;;;;;;4212667;28;20097;-64
2022/07/03 09:33:02;;;;;;;5.43;3.50;;;29.70;94.60;;;;;;4212471;28;20476;-67
2022/07/03 09:35:23;;;;;;;3.63;2.97;;;29.60;94.40;;;;;;4212125;28;20492;-64
2022/07/03 09:37:25;;;;;;;5.00;3.50;;;29.70;94.10;;;;;;4213080;28;20044;-66
2022/07/03 09:39:34;;;;;;;4.20;3.20;;;29.60;94.20;;;;;;4212935;28;20036;-65
2022/07/03 09:41:53;;;;;;;6.47;3.30;;;29.60;94.20;;;;;;4212426;28;20431;-64
2022/07/03 09:43:54;;;;;;;4.65;3.42;;;29.70;94.00;;;;;;4212718;28;20024;-65
2022/07/03 09:46:02;;;;;;;3.00;2.70;;;29.80;94.00;;;;;;4212341;28;20023;-65
2022/07/03 09:48:03;;;;;;;5.30;2.88;;;29.80;93.70;;;;;;4212649;28;20498;-64
2022/07/03 09:50:07;;;;;;;6.32;3.22;;;29.80;93.80;;;;;;4210407;28;20090;-65
2022/07/03 09:52:12;;;;;;;4.88;3.42;;;29.80;93.60;;;;;;4212767;28;20069;-63
2022/07/03 09:54:16;;;;;;;4.35;2.95;;;29.90;93.30;;;;;;4212098;28;20032;-65
2022/07/03 09:56:19;;;;;;;4.22;3.05;;;29.90;92.80;;;;;;4213160;28;20066;-66
2022/07/03 09:58:20;;;;;;;4.47;3.03;;;30.00;92.80;;;;;;4211721;28;20093;-64
2022/07/03 10:00:24;;;;;;;4.38;2.80;;;30.00;92.70;;;;;;4212829;28;20056;-65
2022/07/03 10:02:25;;;;;;;3.65;2.90;;;30.00;92.70;;;;;;4212075;28;20040;-66
2022/07/03 10:04:26;;;;;;;5.32;3.13;;;30.10;92.60;;;;;;4213073;28;20089;-65
2022/07/03 10:06:27;;;;;;;3.47;3.15;;;30.30;92.50;;;;;;4211798;28;20093;-63
2022/07/03 10:08:29;;;;;;;5.10;3.10;;;30.30;92.40;;;;;;4213231;28;20089;-65
2022/07/03 10:10:44;;;;;;;3.97;2.83;;;30.20;92.20;;;;;;4211606;28;20032;-64
2022/07/03 10:12:46;;;;;;;3.33;3.03;;;30.10;92.00;;;;;;4212946;28;20101;-66
2022/07/03 10:14:48;;;;;;;3.10;2.88;;;29.90;92.00;;;;;;4211428;28;20093;-66
2022/07/03 10:16:49;;;;;;;3.63;2.90;;;30.10;92.20;;;;;;4212655;28;20097;-65
2022/07/03 10:18:51;;;;;;;5.25;2.90;;;30.10;91.90;;;;;;4211616;28;20089;-65
2022/07/03 10:20:56;;;;;;;3.22;2.95;;;30.20;91.60;;;;;;4211927;28;20020;-64
2022/07/03 10:22:57;;;;;;;6.50;3.00;;;30.30;91.50;;;;;;4211915;28;20044;-64
2022/07/03 10:25:00;;;;;;;5.75;2.72;;;30.40;91.60;;;;;;4211809;28;20032;-64
2022/07/03 10:27:01;;;;;;;7.00;3.33;;;30.50;91.50;;;;;;4212122;28;20036;-66
2022/07/03 10:29:02;;;;;;;3.88;3.10;;;30.60;91.50;;;;;;4211577;28;20055;-65
2022/07/03 10:31:04;;;;;;;3.90;2.92;;;30.70;91.30;;;;;;4212484;28;20024;-66
2022/07/03 10:33:05;;;;;;;7.10;2.67;;;30.70;91.10;;;;;;4211227;28;20093;-67
2022/07/03 10:35:08;;;;;;;3.10;2.83;;;30.60;90.90;;;;;;4212462;28;20028;-66
2022/07/03 10:37:15;;;;;;;3.65;2.75;;;30.70;90.80;;;;;;4211501;28;20073;-67
2022/07/03 10:39:29;;;;;;;4.30;2.58;;;30.90;90.70;;;;;;4212437;28;20061;-62
2022/07/03 10:46:20;;;;;;;3.92;3.58;;;30.90;90.40;;;;;;4211027;28;20036;-65
2022/07/03 10:48:42;;;;;;;3.58;3.05;;;30.90;90.10;;;;;;4212378;28;20070;-64
2022/07/03 10:50:43;;;;;;;3.40;2.70;;;30.70;90.00;;;;;;4211334;28;20488;-66